Time;durP1;ratioP1;P1;durP2;ratioP2;P2;SDS_P1;SDS_P2;PMS_P1;PMS_P2;Temp;Humidity;BMP_temperature;BMP_pressure;BME280_temperature;BME280_humidity;BME280_pressure;Samples;Min_cycle;Max_cycle;Signal;HPM_P1;HPM_P2
2021/12/25 17:42:54;;;;;;;19.70;9.63;;;2.30;99.90;;;;;;4745036;23;20903;-75
2021/12/25 17:45:24;;;;;;;20.87;9.83;;;2.10;99.90;;;;;;4897524;29;20206;-77
2021/12/25 17:47:52;;;;;;;17.40;9.27;;;2.10;99.90;;;;;;4896660;29;20210;-74
2021/12/25 17:50:22;;;;;;;24.13;10.77;;;2.30;99.90;;;;;;4897414;29;20221;-87
2021/12/25 17:52:50;;;;;;;16.47;9.43;;;2.40;99.90;;;;;;4897891;29;20210;-85
2021/12/25 17:55:18;;;;;;;20.50;8.83;;;2.40;99.90;;;;;;4897867;29;20290;-86
2021/12/25 17:57:48;;;;;;;20.00;9.57;;;2.40;99.90;;;;;;4897562;29;20218;-81
2021/12/25 18:00:18;;;;;;;19.13;9.13;;;2.40;99.90;;;;;;4898044;29;20213;-83
2021/12/25 18:02:47;;;;;;;19.03;9.33;;;2.50;99.90;;;;;;4898027;29;20244;-83
2021/12/25 18:05:14;;;;;;;16.07;8.60;;;2.50;99.90;;;;;;4896656;29;20210;-85
2021/12/25 18:07:41;;;;;;;19.67;9.03;;;2.40;99.90;;;;;;4897521;29;20210;-86
2021/12/25 18:10:12;;;;;;;13.23;6.97;;;2.50;99.90;;;;;;4898227;29;20384;-85
2021/12/25 18:12:39;;;;;;;20.37;8.97;;;2.40;99.90;;;;;;4897382;29;20245;-85
2021/12/25 18:15:10;;;;;;;15.77;7.20;;;2.50;99.90;;;;;;4897599;29;20199;-85
2021/12/25 18:17:41;;;;;;;12.97;7.00;;;2.50;99.90;;;;;;4898147;29;20245;-82
2021/12/25 18:20:13;;;;;;;11.97;7.17;;;2.40;99.90;;;;;;4897703;29;20654;-75
2021/12/25 18:22:40;;;;;;;16.13;7.83;;;2.30;99.90;;;;;;4897847;29;20673;-73
2021/12/25 18:25:09;;;;;;;11.47;5.70;;;2.20;99.90;;;;;;4897225;29;20236;-82
2021/12/25 18:27:37;;;;;;;21.57;7.07;;;2.20;99.90;;;;;;4896188;29;20296;-77
2021/12/25 18:30:06;;;;;;;15.70;7.80;;;2.20;99.90;;;;;;4895653;29;20218;-81
2021/12/25 18:32:33;;;;;;;19.53;7.70;;;2.20;99.90;;;;;;4895870;29;20242;-74
2021/12/25 18:35:02;;;;;;;24.17;9.33;;;2.30;99.90;;;;;;4895140;29;20210;-85
2021/12/25 18:37:31;;;;;;;18.67;8.50;;;2.40;99.90;;;;;;4897062;29;20217;-86
2021/12/25 18:39:58;;;;;;;20.00;7.97;;;2.40;99.90;;;;;;4896857;29;20230;-82
2021/12/25 18:42:25;;;;;;;18.93;8.73;;;2.30;99.90;;;;;;4897111;29;20681;-76
2021/12/25 18:44:52;;;;;;;15.10;8.00;;;2.50;99.90;;;;;;4896426;29;20574;-77
2021/12/25 18:47:21;;;;;;;20.33;9.93;;;2.40;99.90;;;;;;4897071;29;20220;-73
2021/12/25 18:49:48;;;;;;;13.57;6.33;;;2.40;99.90;;;;;;4901767;29;20230;-77
2021/12/25 18:52:18;;;;;;;18.90;8.30;;;2.40;99.90;;;;;;4899933;29;20238;-81
2021/12/25 18:54:45;;;;;;;13.17;7.10;;;2.40;99.90;;;;;;4883765;29;20294;-79
2021/12/25 18:57:12;;;;;;;17.90;8.03;;;2.50;99.90;;;;;;4882427;29;20264;-82
2021/12/25 18:59:40;;;;;;;18.80;8.40;;;2.40;99.90;;;;;;4877419;29;20223;-72
2021/12/25 19:02:07;;;;;;;17.13;7.77;;;2.30;99.90;;;;;;4876873;29;20845;-77
2021/12/25 19:04:35;;;;;;;15.17;7.60;;;2.40;99.90;;;;;;4890723;29;20206;-85
2021/12/25 19:07:03;;;;;;;18.03;7.63;;;2.40;99.90;;;;;;4895549;29;20243;-83
2021/12/25 19:09:31;;;;;;;16.27;7.27;;;2.40;99.90;;;;;;4896470;29;20222;-80
2021/12/25 19:11:58;;;;;;;14.80;6.90;;;2.30;99.90;;;;;;4896410;29;20586;-71
2021/12/25 19:14:25;;;;;;;14.87;7.53;;;2.30;99.90;;;;;;4893443;29;20217;-71
2021/12/25 19:16:53;;;;;;;13.67;6.87;;;2.50;99.90;;;;;;4894588;29;20681;-72
2021/12/25 19:19:21;;;;;;;18.23;6.87;;;2.30;99.90;;;;;;4894665;29;20227;-78
2021/12/25 19:21:48;;;;;;;19.67;5.77;;;2.30;99.90;;;;;;4896252;29;20211;-77
2021/12/25 19:24:19;;;;;;;14.73;6.70;;;2.40;99.90;;;;;;4898021;29;20411;-75
2021/12/25 19:26:47;;;;;;;12.87;6.47;;;2.30;99.90;;;;;;4900389;29;20246;-82
2021/12/25 19:29:15;;;;;;;14.07;5.77;;;2.40;99.90;;;;;;4899819;29;20226;-79
2021/12/25 19:31:42;;;;;;;10.57;5.97;;;2.40;99.90;;;;;;4899713;29;20230;-75
2021/12/25 19:34:10;;;;;;;13.57;5.67;;;2.30;99.90;;;;;;4900009;29;20199;-75
2021/12/25 19:36:36;;;;;;;12.57;5.97;;;2.40;99.90;;;;;;4900290;29;20217;-81
2021/12/25 19:39:06;;;;;;;11.33;6.30;;;2.40;99.90;;;;;;4900695;29;20234;-81
2021/12/25 19:41:32;;;;;;;14.33;5.80;;;2.50;99.90;;;;;;4900415;29;20218;-85
2021/12/25 19:44:01;;;;;;;10.90;5.17;;;2.60;99.90;;;;;;4900394;29;20206;-82
2021/12/25 19:46:31;;;;;;;15.30;5.73;;;2.70;99.90;;;;;;4901161;29;20223;-85
2021/12/25 19:48:58;;;;;;;14.13;6.63;;;2.70;99.90;;;;;;4900618;29;20356;-79
2021/12/25 19:51:25;;;;;;;17.07;6.63;;;2.60;99.90;;;;;;4900134;29;20317;-79
2021/12/25 19:53:53;;;;;;;12.77;6.40;;;2.60;99.90;;;;;;4900160;29;20547;-74
2021/12/25 19:56:20;;;;;;;12.80;5.87;;;2.70;99.90;;;;;;4899801;29;20211;-75
2021/12/25 19:58:47;;;;;;;13.30;5.70;;;2.70;99.90;;;;;;4899503;29;20226;-71
2021/12/25 20:01:20;;;;;;;10.17;5.53;;;2.70;99.90;;;;;;4899889;29;20219;-72
2021/12/25 20:03:48;;;;;;;8.87;5.13;;;2.80;99.90;;;;;;4899420;29;20250;-71
2021/12/25 20:06:15;;;;;;;13.03;5.97;;;2.60;99.90;;;;;;4900036;29;20221;-74
2021/12/25 20:08:44;;;;;;;10.80;5.13;;;2.60;99.90;;;;;;4899856;29;20245;-72
2021/12/25 20:11:13;;;;;;;10.77;5.17;;;2.60;99.90;;;;;;4899458;29;20577;-86
2021/12/25 20:13:41;;;;;;;9.00;5.03;;;2.70;99.90;;;;;;4891803;29;20213;-74
2021/12/25 20:16:11;;;;;;;12.27;5.20;;;2.70;99.90;;;;;;4890317;29;20206;-72
2021/12/25 20:18:40;;;;;;;8.73;5.03;;;2.70;99.90;;;;;;4899533;29;20697;-84
2021/12/25 20:21:08;;;;;;;9.43;5.63;;;2.90;99.90;;;;;;4881041;29;20575;-81
2021/12/25 20:23:36;;;;;;;9.33;5.17;;;2.80;99.90;;;;;;4891039;29;20217;-82
2021/12/25 20:26:03;;;;;;;13.03;5.37;;;2.80;99.90;;;;;;4898769;29;20215;-72
2021/12/25 20:28:30;;;;;;;6.67;4.20;;;2.80;99.90;;;;;;4899430;29;20232;-84
2021/12/25 20:30:56;;;;;;;9.97;5.13;;;2.70;99.90;;;;;;4898458;29;20206;-79
2021/12/25 20:33:23;;;;;;;9.47;4.67;;;2.70;99.90;;;;;;4892762;29;20233;-72
2021/12/25 20:35:52;;;;;;;8.80;4.40;;;2.80;99.90;;;;;;4885972;29;20667;-86
2021/12/25 20:38:21;;;;;;;9.60;4.93;;;2.70;99.90;;;;;;4880948;29;20231;-88
2021/12/25 20:40:50;;;;;;;9.00;4.53;;;2.70;99.90;;;;;;4899378;29;20210;-84
2021/12/25 20:43:23;;;;;;;7.63;4.37;;;2.60;99.90;;;;;;4899231;29;20701;-83
2021/12/25 20:45:51;;;;;;;9.60;4.40;;;2.70;99.90;;;;;;4899898;29;20211;-81
2021/12/25 20:48:20;;;;;;;9.57;4.37;;;2.70;99.90;;;;;;4899305;29;20234;-86
2021/12/25 20:50:50;;;;;;;8.33;4.70;;;2.80;99.90;;;;;;4899301;29;20700;-89
2021/12/25 20:53:19;;;;;;;9.73;4.50;;;2.90;99.90;;;;;;4899612;29;20838;-86
2021/12/25 20:55:46;;;;;;;7.70;4.47;;;2.90;99.90;;;;;;4900239;29;20221;-87
2021/12/25 20:58:13;;;;;;;11.77;4.77;;;2.90;99.90;;;;;;4900234;29;20234;-88
2021/12/25 21:00:40;;;;;;;8.13;4.80;;;2.90;99.90;;;;;;4899846;29;20229;-88
2021/12/25 21:03:10;;;;;;;9.73;4.80;;;2.90;99.90;;;;;;4899657;29;20213;-76
2021/12/25 21:05:40;;;;;;;9.03;4.50;;;3.00;99.90;;;;;;4898333;29;20214;-70
2021/12/25 21:08:08;;;;;;;7.03;4.20;;;3.00;99.90;;;;;;4898121;29;20210;-74
2021/12/25 21:10:40;;;;;;;8.67;4.60;;;3.10;99.90;;;;;;4898732;29;20297;-70
2021/12/25 21:13:07;;;;;;;11.67;5.03;;;3.10;99.90;;;;;;4898908;29;20242;-83
2021/12/25 21:15:36;;;;;;;8.70;4.00;;;3.20;99.90;;;;;;4899480;29;20206;-84
2021/12/25 21:18:03;;;;;;;8.23;4.43;;;3.20;99.90;;;;;;4885273;29;20207;-79
2021/12/25 21:20:31;;;;;;;14.60;4.87;;;3.10;99.90;;;;;;4879778;29;20723;-80
2021/12/25 21:22:58;;;;;;;10.07;5.00;;;3.10;99.90;;;;;;4879716;29;20211;-74
2021/12/25 21:25:27;;;;;;;8.87;4.67;;;3.10;99.90;;;;;;4890971;29;20803;-87
2021/12/25 21:27:56;;;;;;;8.27;4.27;;;3.00;99.90;;;;;;4899300;29;20232;-84
2021/12/25 21:30:24;;;;;;;10.23;5.10;;;3.10;99.90;;;;;;4899855;29;20215;-87
2021/12/25 21:32:57;;;;;;;10.77;4.70;;;3.10;99.90;;;;;;4899514;29;20242;-86
2021/12/25 21:35:25;;;;;;;8.00;4.23;;;3.10;99.90;;;;;;4899745;29;20234;-89
2021/12/25 21:37:52;;;;;;;7.00;4.23;;;3.20;99.90;;;;;;4899717;29;20293;-86
2021/12/25 21:40:20;;;;;;;8.47;4.20;;;3.40;99.90;;;;;;4899015;29;20207;-84
2021/12/25 21:42:49;;;;;;;10.07;4.43;;;3.40;99.90;;;;;;4898307;29;20222;-70
2021/12/25 21:45:19;;;;;;;7.90;3.80;;;3.40;99.90;;;;;;4898419;29;20226;-70
2021/12/25 21:47:47;;;;;;;7.43;4.43;;;3.40;99.90;;;;;;4898354;29;20581;-71
2021/12/25 21:50:18;;;;;;;6.80;4.00;;;3.30;99.90;;;;;;4898365;29;20218;-76
2021/12/25 21:52:45;;;;;;;8.03;4.30;;;3.20;99.90;;;;;;4898266;29;20242;-71
2021/12/25 21:55:13;;;;;;;8.50;4.70;;;3.20;99.90;;;;;;4898077;29;20214;-85
2021/12/25 21:57:41;;;;;;;6.83;4.07;;;3.20;99.90;;;;;;4898136;29;20613;-86
2021/12/25 22:00:11;;;;;;;7.33;3.87;;;3.00;99.90;;;;;;4899474;29;20226;-80
2021/12/25 22:02:40;;;;;;;7.23;3.73;;;2.90;99.90;;;;;;4898739;29;20210;-75
2021/12/25 22:05:07;;;;;;;5.43;3.80;;;3.00;99.90;;;;;;4899401;29;20214;-83
2021/12/25 22:07:39;;;;;;;8.27;3.73;;;3.00;99.90;;;;;;4898583;29;20214;-86
2021/12/25 22:10:08;;;;;;;7.47;4.43;;;2.90;99.90;;;;;;4899019;29;20653;-86
2021/12/25 22:12:36;;;;;;;7.10;4.10;;;3.00;99.90;;;;;;4898795;29;20713;-87
2021/12/25 22:15:03;;;;;;;7.73;4.27;;;3.10;99.90;;;;;;4899080;29;20210;-88
2021/12/25 22:17:30;;;;;;;7.83;4.30;;;3.00;99.90;;;;;;4898735;29;20214;-88
2021/12/25 22:19:58;;;;;;;7.73;4.00;;;2.90;99.90;;;;;;4899516;29;20579;-85
2021/12/25 22:22:26;;;;;;;6.37;4.03;;;3.00;99.90;;;;;;4899048;29;20682;-88
2021/12/25 22:24:53;;;;;;;6.73;3.57;;;3.10;99.90;;;;;;4898911;29;20242;-90
2021/12/25 22:27:20;;;;;;;8.87;4.17;;;2.90;99.90;;;;;;4898825;29;20227;-89
2021/12/25 22:29:48;;;;;;;9.47;4.50;;;2.80;99.90;;;;;;4898876;29;20238;-89
2021/12/25 22:32:15;;;;;;;7.87;3.73;;;2.80;99.90;;;;;;4898864;29;20238;-88
2021/12/25 22:34:41;;;;;;;10.30;4.57;;;2.80;99.90;;;;;;4898786;29;20577;-89
2021/12/25 22:37:10;;;;;;;6.07;3.57;;;2.70;99.90;;;;;;4898407;29;20210;-89
2021/12/25 22:39:37;;;;;;;7.40;3.70;;;2.80;99.90;;;;;;4898006;29;20606;-81
2021/12/25 22:42:04;;;;;;;4.93;3.30;;;2.70;99.90;;;;;;4898019;29;20222;-89
2021/12/25 22:44:31;;;;;;;7.33;4.07;;;2.70;99.90;;;;;;4898418;29;20211;-86
2021/12/25 22:46:58;;;;;;;7.83;3.97;;;2.80;99.90;;;;;;4898122;29;20214;-83
2021/12/25 22:49:25;;;;;;;5.73;3.40;;;2.70;99.90;;;;;;4897918;29;20315;-85
2021/12/25 22:51:52;;;;;;;8.73;3.90;;;2.60;99.90;;;;;;4898771;29;20569;-89
2021/12/25 22:54:20;;;;;;;6.53;3.77;;;2.60;99.90;;;;;;4898215;29;20728;-81
2021/12/25 22:56:47;;;;;;;7.00;4.00;;;2.60;99.90;;;;;;4898369;29;20214;-85
2021/12/25 22:59:14;;;;;;;7.23;3.63;;;2.60;99.90;;;;;;4897809;29;20222;-71
